Time;durP1;ratioP1;P1;durP2;ratioP2;P2;SDS_P1;SDS_P2;PMS_P1;PMS_P2;Temp;Humidity;BMP_temperature;BMP_pressure;BME280_temperature;BME280_humidity;BME280_pressure;Samples;Min_cycle;Max_cycle;Signal;HPM_P1;HPM_P2
2022/01/09 00:00:20;;;;;;;15.32;2.60;;;;;;;13.32;44.28;98477.78;4408969;32;20329;-68
2022/01/09 00:02:45;;;;;;;21.45;2.97;;;;;;;13.13;44.34;98478.81;4409766;32;20046;-68
2022/01/09 00:05:12;;;;;;;7.40;1.90;;;;;;;13.01;44.45;98483.63;4409409;32;20053;-70
2022/01/09 00:07:38;;;;;;;12.25;2.92;;;;;;;13.29;44.11;98500.66;4409421;32;20518;-69
2022/01/09 00:10:06;;;;;;;12.00;1.87;;;;;;;13.28;43.99;98507.56;4406859;32;20474;-69
2022/01/09 00:12:32;;;;;;;18.83;2.50;;;;;;;13.52;43.83;98510.69;4408821;32;20037;-69
2022/01/09 00:14:58;;;;;;;18.92;2.90;;;;;;;13.64;43.54;98515.06;4409210;32;20082;-69
2022/01/09 00:17:23;;;;;;;21.48;2.97;;;;;;;13.80;43.12;98509.44;4408492;32;20096;-69
2022/01/09 00:19:49;;;;;;;29.23;3.12;;;;;;;13.61;43.46;98516.88;4409307;32;20563;-70
2022/01/09 00:22:17;;;;;;;22.90;5.72;;;;;;;13.76;43.40;98525.88;4407914;32;20053;-70
2022/01/09 00:24:44;;;;;;;14.13;2.47;;;;;;;13.91;43.08;98528.47;4408695;32;20072;-69
2022/01/09 00:27:09;;;;;;;14.98;1.98;;;;;;;13.71;43.27;98523.81;4410849;32;20093;-69
2022/01/09 00:29:35;;;;;;;8.65;2.05;;;;;;;13.52;43.54;98536.91;4406951;32;20097;-68
2022/01/09 00:32:00;;;;;;;22.87;4.12;;;;;;;13.21;43.69;98525.81;4404417;32;20426;-69
2022/01/09 00:34:26;;;;;;;19.15;2.30;;;;;;;13.02;44.53;98538.06;4411268;32;20069;-70
2022/01/09 00:36:52;;;;;;;16.00;2.53;;;;;;;12.86;44.55;98536.66;4409432;32;20046;-69
2022/01/09 00:39:18;;;;;;;20.50;2.58;;;;;;;13.04;44.40;98543.97;4409131;32;20082;-70
2022/01/09 00:41:43;;;;;;;17.08;2.53;;;;;;;13.09;44.13;98552.47;4408925;32;20556;-69
2022/01/09 00:44:09;;;;;;;18.20;2.35;;;;;;;13.44;43.60;98555.63;4410519;32;20057;-69
2022/01/09 00:46:35;;;;;;;18.05;2.30;;;;;;;13.30;43.53;98551.00;4409549;32;20097;-69
2022/01/09 00:49:04;;;;;;;17.25;2.60;;;;;;;13.04;44.14;98556.03;4409634;32;20068;-69
2022/01/09 00:51:31;;;;;;;15.30;2.08;;;;;;;12.96;44.38;98548.53;4408087;32;20065;-69
2022/01/09 00:53:57;;;;;;;18.25;2.60;;;;;;;13.18;44.09;98565.56;4407312;32;20034;-69
2022/01/09 00:56:23;;;;;;;17.50;3.00;;;;;;;13.39;43.16;98569.75;4409897;32;20062;-69
2022/01/09 00:58:49;;;;;;;19.00;2.15;;;;;;;13.51;43.11;98577.75;4408652;32;20564;-69
2022/01/09 01:01:14;;;;;;;15.52;2.00;;;;;;;13.33;43.23;98583.87;4407504;32;20061;-69
2022/01/09 01:03:40;;;;;;;15.45;2.20;;;;;;;13.70;43.02;98575.19;4405019;32;20060;-69
2022/01/09 01:06:06;;;;;;;17.05;1.80;;;;;;;12.71;44.55;98567.16;4409221;32;20450;-68
2022/01/09 01:08:31;;;;;;;16.27;2.70;;;;;;;13.06;44.00;98578.88;4410560;32;20065;-68
2022/01/09 01:10:57;;;;;;;12.20;2.72;;;;;;;13.04;43.82;98578.59;4407965;32;20709;-69
2022/01/09 01:13:23;;;;;;;19.85;2.20;;;;;;;13.66;42.73;98578.28;4406888;32;20038;-69
2022/01/09 01:15:48;;;;;;;21.58;2.30;;;;;;;13.52;42.61;98576.47;4407934;32;20082;-69
2022/01/09 01:18:14;;;;;;;18.00;2.08;;;;;;;13.66;42.50;98588.81;4408626;32;20066;-69
2022/01/09 01:20:41;;;;;;;21.40;2.35;;;;;;;13.35;42.76;98586.19;4405567;32;20485;-69
2022/01/09 01:23:07;;;;;;;14.93;2.20;;;;;;;13.32;43.04;98596.44;4406065;32;20050;-68
2022/01/09 01:25:35;;;;;;;15.73;2.35;;;;;;;13.34;42.83;98593.88;4409159;32;20438;-69
2022/01/09 01:28:01;;;;;;;24.12;2.92;;;;;;;13.05;43.44;98599.16;4407888;32;20384;-69
2022/01/09 01:30:26;;;;;;;19.35;2.08;;;;;;;13.23;43.05;98593.06;4406128;32;20072;-68
2022/01/09 01:32:52;;;;;;;17.02;2.37;;;;;;;13.65;42.50;98605.00;4407482;32;20042;-69
2022/01/09 01:35:18;;;;;;;18.30;2.35;;;;;;;13.54;42.53;98607.03;4409018;32;20101;-69
2022/01/09 01:37:44;;;;;;;20.60;2.90;;;;;;;13.41;42.73;98609.56;4407705;32;20096;-68
2022/01/09 01:40:14;;;;;;;21.20;2.25;;;;;;;13.46;42.66;98605.97;4407992;32;20053;-69
2022/01/09 01:42:40;;;;;;;33.15;4.00;;;;;;;13.78;42.23;98608.09;4408172;32;20046;-71
2022/01/09 01:45:09;;;;;;;19.75;3.17;;;;;;;13.61;42.59;98606.53;4407894;32;20412;-69
2022/01/09 01:47:35;;;;;;;18.65;2.33;;;;;;;13.62;42.63;98613.72;4406994;32;20416;-69
2022/01/09 01:50:02;;;;;;;16.58;2.62;;;;;;;12.59;44.28;98615.56;4405072;32;20041;-69
2022/01/09 01:52:32;;;;;;;18.20;2.30;;;;;;;12.95;43.32;98612.66;4404355;32;20058;-69
2022/01/09 01:54:58;;;;;;;17.40;2.28;;;;;;;12.81;43.83;98626.97;4407216;32;20529;-69
2022/01/09 01:57:24;;;;;;;14.68;2.55;;;;;;;13.24;42.87;98620.03;4406659;32;20038;-69
2022/01/09 01:59:49;;;;;;;19.87;2.65;;;;;;;13.49;42.39;98625.53;4407078;32;21436;-69
2022/01/09 02:02:15;;;;;;;14.75;2.30;;;;;;;13.39;42.53;98627.03;4406312;32;20073;-69
2022/01/09 02:04:41;;;;;;;17.85;2.60;;;;;;;13.30;42.37;98623.66;4407272;32;20130;-70
2022/01/09 02:07:07;;;;;;;22.25;2.65;;;;;;;13.75;41.42;98623.25;4409447;32;20077;-70
2022/01/09 02:09:33;;;;;;;14.70;2.10;;;;;;;13.83;41.56;98629.19;4406972;32;20144;-70
2022/01/09 02:11:59;;;;;;;18.40;2.42;;;;;;;13.88;41.27;98634.88;4408361;32;20030;-70
2022/01/09 02:14:25;;;;;;;15.50;2.80;;;;;;;13.72;41.76;98635.59;4408215;32;20054;-70
2022/01/09 02:16:51;;;;;;;16.75;2.47;;;;;;;14.00;nan;98636.41;4407470;32;20037;-70
2022/01/09 02:19:21;;;;;;;14.52;2.22;;;;;;;13.81;41.53;98655.12;4407055;32;20053;-70
2022/01/09 02:21:47;;;;;;;13.62;2.12;;;;;;;13.35;42.27;98657.56;4406262;32;20070;-70
2022/01/09 02:24:13;;;;;;;23.80;2.50;;;;;;;13.31;42.20;98659.84;4408245;32;20042;-71
2022/01/09 02:26:39;;;;;;;18.95;2.40;;;;;;;13.62;41.63;98654.06;4407842;32;20112;-69
2022/01/09 02:29:05;;;;;;;16.52;2.55;;;;;;;13.02;43.02;98643.31;4408392;32;20532;-69
2022/01/09 02:31:33;;;;;;;23.95;2.70;;;;;;;12.99;43.07;98652.78;4405900;32;20038;-69
2022/01/09 02:33:59;;;;;;;14.20;2.70;;;;;;;13.38;42.58;98650.13;4408814;32;20077;-69
2022/01/09 02:36:25;;;;;;;18.70;2.75;;;;;;;12.86;43.68;98646.75;4408099;32;20033;-70
2022/01/09 02:38:51;;;;;;;13.60;2.35;;;;;;;13.23;42.80;98647.47;4407658;32;20086;-70
2022/01/09 02:41:18;;;;;;;17.10;2.58;;;;;;;12.80;43.43;98654.44;4406540;32;20149;-70
2022/01/09 02:43:44;;;;;;;13.27;2.28;;;;;;;12.85;43.09;98648.03;4408279;32;20053;-70
2022/01/09 02:48:47;;;;;;;23.15;2.50;;;;;;;12.97;43.01;98669.41;3976766;32;15093567;-69
2022/01/09 02:51:17;;;;;;;16.30;2.80;;;;;;;12.97;43.01;98669.41;4427865;32;20434;-70
2022/01/09 02:53:47;;;;;;;16.35;2.40;;;;;;;12.45;43.95;98664.44;4419231;32;20145;-70
2022/01/09 02:56:15;;;;;;;24.42;2.65;;;;;;;13.10;42.94;98655.66;4430167;32;20151;-70
2022/01/09 02:58:41;;;;;;;15.98;2.75;;;;;;;12.97;43.21;98674.28;4429108;32;20096;-69
2022/01/09 03:01:09;;;;;;;18.87;2.45;;;;;;;12.34;44.08;98673.59;4427229;32;20037;-70
2022/01/09 03:03:36;;;;;;;32.05;4.35;;;;;;;12.83;43.64;98673.19;4427268;32;20296;-70
2022/01/09 03:06:02;;;;;;;20.92;2.42;;;;;;;12.59;44.02;98680.44;4428895;32;20190;-70
2022/01/09 03:08:28;;;;;;;21.62;2.92;;;;;;;12.53;44.29;98673.97;4427721;32;20639;-69
2022/01/09 03:10:54;;;;;;;17.20;3.33;;;;;;;12.52;44.28;98683.72;4429654;32;20918;-69
2022/01/09 03:13:20;;;;;;;19.33;3.33;;;;;;;12.02;45.33;98686.09;4426910;32;20512;-69
2022/01/09 03:15:45;;;;;;;15.75;2.75;;;;;;;12.59;44.13;98692.50;4429814;32;20100;-69
2022/01/09 03:18:12;;;;;;;21.40;2.87;;;;;;;12.35;44.71;98686.41;4428744;32;20061;-69
2022/01/09 03:20:39;;;;;;;22.75;2.60;;;;;;;12.37;44.38;98686.69;4428194;32;20064;-70
2022/01/09 03:23:05;;;;;;;13.52;3.03;;;;;;;12.07;45.15;98693.84;4413576;32;20034;-70
2022/01/09 03:25:31;;;;;;;18.45;2.87;;;;;;;12.38;44.55;98690.28;4430347;32;20470;-69
2022/01/09 03:27:58;;;;;;;19.37;2.58;;;;;;;12.32;44.63;98683.81;4432648;32;20068;-69
2022/01/09 03:30:25;;;;;;;16.98;2.45;;;;;;;12.56;44.15;98696.34;4428624;32;20060;-69
2022/01/09 03:32:52;;;;;;;17.80;2.47;;;;;;;12.55;43.92;98708.13;4429818;32;20126;-69
2022/01/09 03:35:21;;;;;;;23.38;3.42;;;;;;;12.58;44.08;98707.88;4427042;32;20376;-70
2022/01/09 03:37:48;;;;;;;15.82;2.05;;;;;;;12.85;43.22;98715.00;4429646;32;20033;-69
2022/01/09 03:40:19;;;;;;;25.17;2.85;;;;;;;12.87;43.07;98710.41;4431024;32;20437;-69
2022/01/09 03:42:47;;;;;;;14.73;2.55;;;;;;;13.24;42.36;98721.69;4427732;32;20099;-69
2022/01/09 03:45:13;;;;;;;20.02;2.92;;;;;;;13.39;42.02;98713.81;4430135;32;20065;-69
2022/01/09 03:47:39;;;;;;;16.50;2.25;;;;;;;12.96;42.68;98710.22;4427856;32;20089;-69
2022/01/09 03:50:08;;;;;;;13.40;2.22;;;;;;;13.48;41.52;98710.78;4427270;32;20100;-69
2022/01/09 03:52:36;;;;;;;12.05;2.05;;;;;;;13.20;41.47;98712.69;4430714;32;20048;-71
2022/01/09 03:55:03;;;;;;;15.25;2.40;;;;;;;12.97;41.52;98722.28;4429211;32;20066;-69
2022/01/09 03:57:29;;;;;;;13.27;2.17;;;;;;;13.30;41.14;98708.38;4429962;32;20095;-69
2022/01/09 03:59:55;;;;;;;20.52;2.58;;;;;;;12.80;41.55;98708.06;4418575;32;20427;-69
2022/01/09 04:02:20;;;;;;;12.37;1.85;;;;;;;12.80;41.61;98710.88;4413715;32;20031;-69
2022/01/09 04:04:46;;;;;;;16.23;2.33;;;;;;;13.01;41.14;98709.50;4418911;32;20154;-69
2022/01/09 04:07:16;;;;;;;15.95;2.10;;;;;;;12.61;42.32;98711.75;4417699;32;20121;-70
2022/01/09 04:09:45;;;;;;;23.98;2.85;;;;;;;12.69;42.35;98710.00;4418767;32;20417;-70
2022/01/09 04:12:16;;;;;;;17.05;2.08;;;;;;;12.35;43.40;98725.91;4417216;32;20122;-70
2022/01/09 04:14:43;;;;;;;17.40;1.90;;;;;;;13.08;42.05;98728.81;4421422;32;20474;-70
2022/01/09 04:17:15;;;;;;;14.43;2.15;;;;;;;13.12;42.21;98723.69;4417152;32;20528;-70
2022/01/09 04:19:41;;;;;;;18.00;1.85;;;;;;;13.32;41.73;98734.09;4420535;32;20038;-71
2022/01/09 04:22:06;;;;;;;13.93;1.92;;;;;;;13.08;42.08;98731.62;4419351;32;20059;-71
2022/01/09 04:24:32;;;;;;;11.75;1.95;;;;;;;12.88;42.72;98728.87;4420824;32;20034;-72
2022/01/09 04:26:58;;;;;;;12.85;1.90;;;;;;;13.67;41.36;98734.50;4414640;32;20066;-71
2022/01/09 04:29:24;;;;;;;14.60;2.22;;;;;;;13.63;41.22;98739.62;4417916;32;20084;-71
2022/01/09 04:31:50;;;;;;;13.77;1.90;;;;;;;13.74;41.28;98729.13;4418117;32;20025;-70
2022/01/09 04:34:15;;;;;;;11.25;1.98;;;;;;;13.52;41.87;98733.91;4418306;32;20904;-70
2022/01/09 04:36:41;;;;;;;11.05;1.90;;;;;;;13.84;41.29;98738.94;4417531;32;20061;-71
2022/01/09 04:39:06;;;;;;;10.55;2.28;;;;;;;13.86;41.71;98741.25;4418540;32;21539;-71
2022/01/09 04:41:32;;;;;;;12.55;1.70;;;;;;;13.91;41.91;98749.00;4417125;32;20618;-71
2022/01/09 04:43:58;;;;;;;15.40;2.53;;;;;;;13.95;41.90;98747.47;4417126;32;20038;-71
2022/01/09 04:46:31;;;;;;;12.23;2.55;;;;;;;13.68;42.83;98736.03;4416630;32;20065;-71
2022/01/09 04:48:57;;;;;;;16.30;2.17;;;;;;;13.60;42.83;98735.75;4418944;32;20414;-71
2022/01/09 04:51:23;;;;;;;11.52;2.45;;;;;;;13.78;42.24;98752.28;4417748;32;20033;-71
2022/01/09 04:53:48;;;;;;;15.88;2.22;;;;;;;13.72;42.55;98747.88;4417417;32;20535;-71
2022/01/09 04:56:14;;;;;;;13.02;2.20;;;;;;;13.70;42.63;98762.53;4417218;32;20109;-71
2022/01/09 04:58:41;;;;;;;16.45;2.65;;;;;;;13.92;42.21;98756.97;4417504;32;20026;-71
2022/01/09 05:01:07;;;;;;;9.40;2.35;;;;;;;14.14;42.00;98755.47;4417280;32;20033;-71
2022/01/09 05:03:34;;;;;;;12.32;2.28;;;;;;;14.22;42.06;98774.28;4417903;32;20169;-71
2022/01/09 05:05:59;;;;;;;15.82;2.17;;;;;;;14.29;41.34;98770.97;4413649;32;20817;-71
2022/01/09 05:08:25;;;;;;;17.15;2.05;;;;;;;14.01;42.25;98778.56;4416126;32;20091;-70
2022/01/09 05:10:50;;;;;;;18.00;2.55;;;;;;;14.14;42.42;98787.34;4415626;32;20097;-70
2022/01/09 05:13:16;;;;;;;15.82;2.58;;;;;;;13.67;44.03;98793.84;4417391;32;20064;-70
2022/01/09 05:15:42;;;;;;;21.50;2.65;;;;;;;13.30;45.41;98796.72;4417180;32;20124;-70
2022/01/09 05:18:13;;;;;;;11.95;2.47;;;;;;;13.22;44.98;98794.84;4418162;32;20034;-70
2022/01/09 05:20:41;;;;;;;19.98;3.42;;;;;;;13.02;45.68;98792.16;4419261;32;20108;-70
2022/01/09 05:23:07;;;;;;;21.80;3.60;;;;;;;13.26;45.56;98796.16;4417184;32;20407;-70
2022/01/09 05:25:32;;;;;;;13.50;2.70;;;;;;;12.97;45.95;98796.47;4417070;32;20034;-70
2022/01/09 05:27:58;;;;;;;10.38;1.85;;;;;;;13.01;45.88;98791.38;4418315;32;20064;-70
2022/01/09 05:30:24;;;;;;;17.55;2.87;;;;;;;12.96;45.44;98805.44;4415160;32;20061;-70
2022/01/09 05:32:49;;;;;;;14.55;2.62;;;;;;;12.97;45.73;98795.66;4418608;32;20029;-70
2022/01/09 05:35:15;;;;;;;20.25;2.72;;;;;;;12.93;44.95;98801.56;4415573;32;20412;-70
2022/01/09 05:37:41;;;;;;;23.73;2.55;;;;;;;12.81;45.31;98794.28;4416563;32;20126;-70
2022/01/09 05:40:07;;;;;;;13.40;2.05;;;;;;;13.02;44.92;98794.97;4415867;32;20319;-70
2022/01/09 05:42:33;;;;;;;13.40;2.25;;;;;;;13.01;44.29;98794.19;4415465;32;20065;-70
2022/01/09 05:44:59;;;;;;;18.23;2.30;;;;;;;12.91;44.77;98797.69;4416081;32;20072;-70
2022/01/09 05:47:24;;;;;;;18.85;2.53;;;;;;;13.09;44.15;98795.28;4420826;32;20041;-70
2022/01/09 05:49:51;;;;;;;17.70;2.22;;;;;;;12.97;45.03;98806.97;4413069;32;20077;-70
2022/01/09 05:52:16;;;;;;;14.20;3.08;;;;;;;12.76;45.63;98800.62;4417513;32;20038;-70
2022/01/09 05:54:42;;;;;;;16.45;2.70;;;;;;;13.09;45.53;98817.09;4418382;32;20092;-70
2022/01/09 05:57:08;;;;;;;24.80;4.55;;;;;;;12.99;46.30;98822.19;4415959;32;20499;-69
2022/01/09 05:59:34;;;;;;;23.92;3.53;;;;;;;13.03;46.76;98834.00;4419248;32;20129;-69
2022/01/09 06:01:59;;;;;;;13.27;3.08;;;;;;;13.09;46.96;98832.00;4417386;32;20623;-69
2022/01/09 06:04:25;;;;;;;19.45;3.03;;;;;;;12.95;46.89;98821.59;4419385;32;20406;-69
2022/01/09 06:06:52;;;;;;;13.75;2.83;;;;;;;12.63;47.42;98822.06;4417265;32;20435;-69
2022/01/09 06:09:17;;;;;;;11.93;2.70;;;;;;;13.04;46.53;98837.63;4416612;32;20151;-69
2022/01/09 06:11:43;;;;;;;16.60;2.35;;;;;;;13.08;46.62;98840.97;4416396;32;20065;-69
2022/01/09 06:14:09;;;;;;;12.55;1.87;;;;;;;12.76;47.28;98831.69;4419333;32;20069;-69
2022/01/09 06:16:34;;;;;;;13.07;1.67;;;;;;;12.65;46.93;98828.00;4417334;32;20108;-69
2022/01/09 06:19:00;;;;;;;7.50;1.10;;;;;;;12.65;47.22;98831.59;4415768;32;20066;-69
2022/01/09 06:21:26;;;;;;;3.28;1.00;;;;;;;12.58;47.12;98834.84;4417060;32;20399;-69
2022/01/09 06:23:52;;;;;;;7.80;1.33;;;;;;;12.18;48.01;98837.72;4415732;32;20140;-69
2022/01/09 06:26:19;;;;;;;7.93;1.45;;;;;;;12.29;47.78;98837.88;4415747;32;20113;-69
2022/01/09 06:28:45;;;;;;;8.93;1.10;;;;;;;12.20;47.67;98835.22;4415800;32;20419;-70
2022/01/09 06:31:10;;;;;;;5.85;0.82;;;;;;;12.02;47.65;98832.69;4415797;32;20402;-70
2022/01/09 06:33:36;;;;;;;3.20;1.10;;;;;;;12.13;47.77;98838.47;4417106;32;20491;-70
2022/01/09 06:36:02;;;;;;;9.80;1.33;;;;;;;12.13;48.08;98834.87;4417342;32;20069;-70
2022/01/09 06:38:27;;;;;;;6.00;1.25;;;;;;;12.16;48.15;98831.84;4400897;32;20123;-70
2022/01/09 06:40:53;;;;;;;8.35;1.15;;;;;;;12.25;47.87;98839.34;4418461;32;20365;-70
2022/01/09 06:43:19;;;;;;;12.95;4.70;;;;;;;12.32;48.05;98836.88;4414687;32;20124;-70
2022/01/09 06:45:44;;;;;;;13.10;2.62;;;;;;;12.49;47.50;98837.06;4415720;32;20092;-70
2022/01/09 06:48:10;;;;;;;8.27;1.95;;;;;;;12.57;47.35;98827.66;4414880;32;20041;-70
2022/01/09 06:50:36;;;;;;;8.10;1.90;;;;;;;12.78;47.07;98843.25;4414373;32;20065;-70
2022/01/09 06:53:01;;;;;;;9.75;2.20;;;;;;;13.00;46.86;98856.81;4415152;32;20561;-70
2022/01/09 06:55:27;;;;;;;8.77;1.92;;;;;;;12.91;47.10;98854.91;4416076;32;20095;-70
2022/01/09 06:57:54;;;;;;;7.10;1.67;;;;;;;12.76;47.37;98856.31;4414841;32;20029;-70
2022/01/09 07:00:21;;;;;;;19.42;2.72;;;;;;;12.56;47.48;98845.09;4414436;32;20474;-71
2022/01/09 07:02:47;;;;;;;11.50;1.62;;;;;;;12.73;47.22;98841.16;4414644;32;20379;-71
2022/01/09 07:05:13;;;;;;;12.98;2.17;;;;;;;12.45;47.35;98842.91;4416506;32;20030;-71
2022/01/09 07:07:39;;;;;;;12.35;2.00;;;;;;;12.58;47.11;98853.84;4415607;32;20421;-70
2022/01/09 07:10:05;;;;;;;11.07;2.30;;;;;;;12.76;46.96;98850.69;4414708;32;20062;-71
2022/01/09 07:12:31;;;;;;;14.13;2.62;;;;;;;12.37;47.40;98843.84;4413200;32;20090;-70
2022/01/09 07:14:57;;;;;;;29.05;3.37;;;;;;;12.55;47.48;98852.00;4415490;32;20381;-70
2022/01/09 07:17:23;;;;;;;17.23;2.67;;;;;;;12.31;47.50;98848.66;4397893;32;20183;-70
2022/01/09 07:19:48;;;;;;;14.27;3.55;;;;;;;12.36;47.55;98857.19;4416366;32;20096;-70
2022/01/09 07:22:14;;;;;;;23.55;3.60;;;;;;;12.00;48.31;98858.53;4413478;32;20074;-71
2022/01/09 07:24:40;;;;;;;19.75;3.92;;;;;;;12.10;47.88;98862.75;4413113;32;20105;-70
2022/01/09 07:27:06;;;;;;;18.17;3.67;;;;;;;12.32;47.33;98869.94;4414733;32;20026;-71
2022/01/09 07:29:32;;;;;;;17.50;3.60;;;;;;;12.28;47.03;98875.81;4414229;32;20076;-71
2022/01/09 07:31:58;;;;;;;14.32;4.20;;;;;;;12.42;47.01;98868.53;4414289;32;20089;-71
2022/01/09 07:34:24;;;;;;;23.62;3.33;;;;;;;12.23;47.27;98879.34;4418576;32;20124;-71
2022/01/09 07:36:50;;;;;;;14.65;3.20;;;;;;;12.08;47.44;98887.09;4418513;32;20352;-71
2022/01/09 07:39:16;;;;;;;18.45;3.50;;;;;;;12.24;46.96;98883.69;4418519;32;20030;-71
2022/01/09 07:41:42;;;;;;;27.42;3.60;;;;;;;12.23;47.17;98887.78;4417054;32;20112;-71
2022/01/09 07:44:08;;;;;;;15.05;2.97;;;;;;;12.25;47.24;98893.72;4419285;32;20152;-71
2022/01/09 07:46:34;;;;;;;15.93;2.92;;;;;;;12.43;46.57;98896.25;4414509;32;20056;-71
2022/01/09 07:49:00;;;;;;;19.12;2.60;;;;;;;12.36;46.43;98896.66;4416707;32;20082;-71
2022/01/09 07:51:25;;;;;;;17.12;2.85;;;;;;;12.37;46.30;98897.44;4414184;32;20081;-71
2022/01/09 07:53:51;;;;;;;18.52;2.67;;;;;;;12.34;46.34;98902.03;4419358;32;20180;-71
2022/01/09 07:56:18;;;;;;;13.45;2.10;;;;;;;12.33;46.11;98900.47;4415420;32;20526;-71
2022/01/09 07:58:43;;;;;;;19.42;3.05;;;;;;;12.15;46.58;98900.00;4414387;32;20060;-71
2022/01/09 08:01:09;;;;;;;13.27;2.25;;;;;;;12.17;46.51;98911.53;4412871;32;20410;-71
2022/01/09 08:03:35;;;;;;;17.27;2.35;;;;;;;12.05;46.65;98900.12;4417026;32;20037;-71
2022/01/09 08:06:02;;;;;;;13.85;2.80;;;;;;;12.47;45.75;98898.84;4415034;32;20345;-71
2022/01/09 08:08:29;;;;;;;12.07;2.53;;;;;;;12.33;46.25;98906.13;4416206;32;20034;-71
2022/01/09 08:10:55;;;;;;;9.30;2.10;;;;;;;12.46;45.80;98911.41;4416678;32;20125;-71
2022/01/09 08:13:20;;;;;;;16.30;2.62;;;;;;;12.56;45.77;98912.78;4419370;32;20431;-71
2022/01/09 08:15:48;;;;;;;23.80;3.55;;;;;;;12.54;45.81;98912.50;4414721;32;20085;-70
2022/01/09 08:18:14;;;;;;;12.15;2.80;;;;;;;12.46;46.20;98911.41;4420597;32;20100;-69
2022/01/09 08:20:40;;;;;;;26.62;9.00;;;;;;;12.18;46.76;98913.13;4416928;32;20085;-69
2022/01/09 08:23:05;;;;;;;15.27;3.30;;;;;;;12.19;46.67;98923.12;4419088;32;20072;-69
2022/01/09 08:25:31;;;;;;;14.35;3.33;;;;;;;12.33;46.21;98931.50;4416461;32;20042;-69
2022/01/09 08:27:57;;;;;;;20.12;3.80;;;;;;;12.25;46.67;98927.56;4415695;32;20067;-69
2022/01/09 08:30:24;;;;;;;17.17;3.83;;;;;;;12.20;46.84;98928.25;4417397;32;20568;-69
2022/01/09 08:32:53;;;;;;;19.05;3.92;;;;;;;12.07;47.13;98922.97;4417777;32;20142;-69
2022/01/09 08:35:22;;;;;;;17.40;3.05;;;;;;;12.43;46.66;98929.31;4415612;32;20221;-70
2022/01/09 08:37:48;;;;;;;18.95;3.75;;;;;;;12.33;46.76;98927.91;4416329;32;20446;-69
2022/01/09 08:40:20;;;;;;;11.95;3.62;;;;;;;12.51;46.25;98924.78;4417972;32;20546;-69
2022/01/09 08:42:47;;;;;;;23.70;4.20;;;;;;;12.93;45.75;98920.13;4416286;32;20471;-69
2022/01/09 08:45:14;;;;;;;14.77;3.30;;;;;;;12.98;45.44;98924.28;4415020;32;20594;-69
2022/01/09 08:47:41;;;;;;;13.02;2.75;;;;;;;13.07;45.52;98932.63;4416413;32;20069;-69
2022/01/09 08:50:08;;;;;;;15.18;2.55;;;;;;;13.08;45.55;98942.63;4413645;32;20086;-69
2022/01/09 08:52:34;;;;;;;12.82;2.72;;;;;;;13.36;45.28;98938.78;4413789;32;20398;-69
2022/01/09 08:55:02;;;;;;;7.07;2.25;;;;;;;13.30;44.74;98932.31;4415228;32;20100;-69
2022/01/09 08:57:28;;;;;;;25.73;4.47;;;;;;;13.37;44.86;98936.72;4415602;32;20096;-69
2022/01/09 08:59:54;;;;;;;15.02;3.03;;;;;;;13.15;45.48;98933.72;4415642;32;20067;-68
2022/01/09 09:02:19;;;;;;;18.30;2.92;;;;;;;13.33;44.95;98951.09;4416619;32;20040;-69
2022/01/09 09:04:45;;;;;;;13.15;3.95;;;;;;;13.39;44.86;98951.13;4414192;32;20392;-69
2022/01/09 09:07:11;;;;;;;9.77;2.70;;;;;;;13.36;45.21;98950.09;4413373;32;20034;-69
2022/01/09 09:09:37;;;;;;;13.23;2.95;;;;;;;13.22;45.43;98955.84;4418132;32;20112;-69
2022/01/09 09:12:04;;;;;;;9.93;2.10;;;;;;;13.29;45.27;98955.41;4414433;32;20033;-69
2022/01/09 09:14:30;;;;;;;12.82;3.65;;;;;;;13.43;45.24;98962.97;4415524;32;20067;-69
2022/01/09 09:16:56;;;;;;;16.05;3.25;;;;;;;13.39;45.27;98966.03;4413902;32;20077;-69
2022/01/09 09:19:23;;;;;;;17.37;2.62;;;;;;;13.37;45.44;98964.97;4416503;32;20116;-69
2022/01/09 09:21:49;;;;;;;14.77;2.42;;;;;;;13.27;45.53;98967.22;4414365;32;20513;-69
2022/01/09 09:24:15;;;;;;;15.50;2.30;;;;;;;13.15;45.87;98971.22;4416436;32;20034;-69
2022/01/09 09:26:41;;;;;;;20.08;2.92;;;;;;;13.37;45.58;98988.37;4416201;32;20065;-69
2022/01/09 09:29:07;;;;;;;19.42;3.25;;;;;;;13.24;45.82;98981.56;4415577;32;20080;-69
2022/01/09 09:31:33;;;;;;;16.48;2.50;;;;;;;13.32;45.45;98983.44;4415760;32;20072;-69
2022/01/09 09:33:59;;;;;;;21.92;2.83;;;;;;;13.34;45.26;98989.34;4416916;32;20064;-69
2022/01/09 09:36:25;;;;;;;23.58;3.08;;;;;;;13.42;44.82;98982.00;4413288;32;20042;-69
2022/01/09 09:38:52;;;;;;;15.52;3.35;;;;;;;13.32;45.34;98972.13;4417029;32;20071;-69
2022/01/09 09:41:22;;;;;;;19.48;3.12;;;;;;;13.48;45.25;98965.88;4417217;32;20472;-69
2022/01/09 09:43:48;;;;;;;17.25;3.37;;;;;;;13.42;45.33;98964.25;4417654;32;20065;-69
2022/01/09 09:46:15;;;;;;;13.23;2.60;;;;;;;13.09;45.87;98964.72;4419825;32;20583;-69
2022/01/09 09:48:41;;;;;;;20.92;3.37;;;;;;;12.97;45.43;98965.84;4415686;32;20062;-69
2022/01/09 09:51:08;;;;;;;20.25;3.20;;;;;;;13.12;45.74;98969.38;4415034;32;20068;-69
2022/01/09 09:53:33;;;;;;;15.18;3.30;;;;;;;13.20;45.81;98970.47;4414864;32;20069;-69
2022/01/09 09:55:59;;;;;;;18.55;2.65;;;;;;;13.40;45.67;98973.25;4415314;32;20427;-69
2022/01/09 09:58:27;;;;;;;13.07;2.17;;;;;;;13.60;45.42;98967.47;4416658;32;20041;-69
2022/01/09 10:00:55;;;;;;;15.43;3.80;;;;;;;13.90;44.50;98980.06;4415478;32;20623;-69
2022/01/09 10:03:30;;;;;;;17.00;2.50;;;;;;;14.45;44.31;98985.31;4420464;32;20029;-69
2022/01/09 10:05:56;;;;;;;12.13;2.78;;;;;;;14.50;43.59;98995.09;4415337;32;20069;-69
2022/01/09 10:08:33;;;;;;;12.65;2.33;;;;;;;14.79;43.12;98997.56;4416009;32;20061;-69
2022/01/09 10:10:59;;;;;;;14.80;2.42;;;;;;;14.93;42.58;99007.91;4416375;32;20069;-69
2022/01/09 10:13:25;;;;;;;13.15;1.95;;;;;;;14.75;42.60;98997.00;4413980;32;20069;-69
2022/01/09 10:15:57;;;;;;;13.85;3.35;;;;;;;15.08;41.86;99017.75;4411890;32;20041;-69
2022/01/09 10:18:44;;;;;;;15.77;2.90;;;;;;;14.99;42.33;99011.53;4414602;32;20077;-69
2022/01/09 10:21:13;;;;;;;14.02;2.67;;;;;;;15.13;41.33;99011.31;4414171;32;20030;-69
2022/01/09 10:26:40;;;;;;;15.57;2.72;;;;;;;15.13;42.04;99030.38;3994387;31;15016588;-69
2022/01/09 10:29:08;;;;;;;14.52;2.83;;;;;;;15.13;42.04;99030.38;4458073;32;20080;-69
2022/01/09 10:31:51;;;;;;;15.68;2.97;;;;;;;14.91;42.20;99027.47;4457932;32;20067;-69
2022/01/09 10:34:17;;;;;;;17.45;3.17;;;;;;;14.86;42.00;99012.00;4456071;32;20160;-69
2022/01/09 10:36:45;;;;;;;19.23;3.22;;;;;;;14.95;42.03;99011.00;4456978;32;20140;-69
2022/01/09 10:39:15;;;;;;;21.05;3.83;;;;;;;15.37;41.63;99002.37;4460876;32;20076;-69
2022/01/09 10:42:03;;;;;;;18.15;2.53;;;;;;;15.15;41.52;99017.25;4456087;32;20052;-68
2022/01/09 10:44:32;;;;;;;23.02;3.00;;;;;;;15.57;nan;99027.66;4457723;32;20037;-69
2022/01/09 10:47:05;;;;;;;16.27;2.53;;;;;;;15.58;41.11;99024.31;4459645;32;20123;-69
2022/01/09 10:52:21;;;;;;;11.23;2.10;;;;;;;16.18;40.53;99025.59;3989124;31;15016666;-69
2022/01/09 10:54:50;;;;;;;15.95;2.60;;;;;;;16.18;40.53;99025.59;4446130;32;20179;-69
2022/01/09 10:57:19;;;;;;;14.32;2.42;;;;;;;15.86;40.79;99038.50;4446527;32;20400;-69
2022/01/09 10:59:46;;;;;;;14.68;3.25;;;;;;;15.63;40.91;99037.72;4434909;32;20608;-69
2022/01/09 11:02:21;;;;;;;18.50;3.20;;;;;;;15.75;40.90;99033.63;4447329;32;20055;-69
2022/01/09 11:04:48;;;;;;;14.05;2.95;;;;;;;15.85;41.07;99039.78;4445904;32;20036;-69
2022/01/09 11:07:14;;;;;;;15.45;3.40;;;;;;;16.46;40.14;99039.75;4445452;32;20044;-69
2022/01/09 11:09:44;;;;;;;17.80;2.67;;;;;;;16.04;40.45;99040.81;4446837;32;20099;-69
2022/01/09 11:12:17;;;;;;;17.92;3.42;;;;;;;15.94;40.68;99065.84;4448159;32;20038;-69
2022/01/09 11:14:43;;;;;;;10.02;2.97;;;;;;;16.02;40.04;99049.09;4443964;32;20044;-69
2022/01/09 11:17:09;;;;;;;14.60;2.58;;;;;;;15.99;40.66;99052.97;4448161;32;20512;-69
2022/01/09 11:19:36;;;;;;;12.43;2.30;;;;;;;15.67;41.19;99048.78;4448458;32;20113;-69
2022/01/09 11:22:05;;;;;;;14.43;3.08;;;;;;;15.39;41.10;99047.97;4445903;32;20037;-69
2022/01/09 11:36:11;;;;;;;14.20;2.40;;;;;;;16.04;40.51;99048.56;3960556;32;15024514;-69
2022/01/09 11:44:01;;;;;;;20.85;3.28;;;;;;;16.24;40.51;99046.22;3979691;32;15023030;-69
2022/01/09 11:46:29;;;;;;;10.65;2.97;;;;;;;16.24;40.51;99046.22;4428575;32;20034;-69